Wetterdaten: aktuell Donnerstag, 14.06.2018 13:00
Datum Zeit Temp. I. Temp. A. Feuchte I. Feuchte A. Luftdruck Regen Wind Richtung Richtung Taupunkt Windchill
14.06.2018 13:00 24,3 C 21,3 C 28 % 53 % 1012 hPa 0,0 mm 7,2 km/h (2 Bft) S-SW45 200 11,3 C 21,3 C
14.06.2018 12:00 24,2 C 19,4 C 28 % 55 % 1013 hPa 0,0 mm 16,9 km/h (3 Bft) S 180 10,1 C 19,4 C
14.06.2018 11:00 24,2 C 17,9 C 29 % 61 % 1013 hPa 0,0 mm 18,7 km/h (3 Bft) S 180 10,3 C 17,9 C
14.06.2018 10:00 23,9 C 16,1 C 32 % 67 % 1013 hPa 0,0 mm 7,2 km/h (2 Bft) S 180 10,0 C 16,1 C
14.06.2018 09:00 23,7 C 14,2 C 32 % 77 % 1013 hPa 0,0 mm 13,7 km/h (3 Bft) S-SO45 155 10,2 C 14,2 C
14.06.2018 08:00 23,9 C 12,3 C 33 % 82 % 1014 hPa 0,0 mm 8,3 km/h (2 Bft) SW 225 9,3 C 12,3 C
14.06.2018 07:00 23,9 C 10,8 C 33 % 83 % 1014 hPa 0,0 mm 0,0 km/h (0 Bft) O-SO45 110 8,0 C 10,8 C
14.06.2018 06:00 23,9 C 10,3 C 33 % 83 % 1014 hPa 0,0 mm 0,0 km/h (0 Bft) S-SO45 155 7,5 C 10,3 C
14.06.2018 05:00 23,9 C 10,2 C 33 % 83 % 1014 hPa 0,0 mm 0,0 km/h (0 Bft) S 180 7,4 C 10,2 C
14.06.2018 04:00 23,9 C 10,5 C 33 % 82 % 1014 hPa 0,0 mm 0,0 km/h (0 Bft) SW 225 7,6 C 10,5 C
14.06.2018 03:00 23,9 C 10,9 C 32 % 79 % 1014 hPa 0,0 mm 0,0 km/h (0 Bft) SW 225 7,4 C 10,9 C
14.06.2018 02:00 24,0 C 11,6 C 31 % 78 % 1015 hPa 0,0 mm 0,0 km/h (0 Bft) SW 225 7,9 C 11,6 C
14.06.2018 01:00 24,0 C 12,3 C 31 % 75 % 1015 hPa 0,0 mm 0,0 km/h (0 Bft) SW 225 8,0 C 12,3 C
14.06.2018 00:00 24,0 C 13,1 C 31 % 71 % 1015 hPa 0,0 mm 0,0 km/h (0 Bft) SW 225 8,0 C 13,1 C
13.06.2018 23:00 24,0 C 14,1 C 31 % 67 % 1015 hPa 0,0 mm 0,0 km/h (0 Bft) W-SW45 245 8,1 C 14,1 C
13.06.2018 22:00 24,1 C 15,9 C 29 % 60 % 1015 hPa 0,0 mm 0,0 km/h (0 Bft) NW 315 8,1 C 15,9 C
13.06.2018 21:00 24,2 C 16,9 C 28 % 57 % 1014 hPa 0,0 mm 0,0 km/h (0 Bft) NW 315 8,3 C 16,9 C
13.06.2018 20:00 24,3 C 17,3 C 27 % 55 % 1015 hPa 0,0 mm 4,0 km/h (1 Bft) W-NW45 290 8,2 C 17,3 C
13.06.2018 19:00 24,2 C 17,8 C 26 % 54 % 1014 hPa 0,0 mm 4,3 km/h (1 Bft) N 360 8,4 C 17,8 C
13.06.2018 18:00 24,1 C 17,9 C 25 % 52 % 1014 hPa 0,0 mm 14,0 km/h (3 Bft) NO 45 7,9 C 17,9 C
13.06.2018 17:00 24,1 C 18,5 C 25 % 51 % 1014 hPa 0,0 mm 13,7 km/h (3 Bft) N-NW45 335 8,2 C 18,5 C
13.06.2018 16:00 24,0 C 18,5 C 25 % 52 % 1014 hPa 0,0 mm 2,9 km/h (1 Bft) N-NW45 335 8,5 C 18,5 C
13.06.2018 15:00 24,0 C 18,3 C 25 % 51 % 1014 hPa 0,0 mm 6,1 km/h (2 Bft) N-NW45 335 8,0 C 18,3 C
13.06.2018 14:00 24,3 C 17,8 C 25 % 55 % 1014 hPa 0,0 mm 4,0 km/h (1 Bft) N-NO45 20 8,6 C 17,8 C
_ Min-Zeit 09:00 05:00 14:00 15:00 13:00 - 21:00 - - 03:00 05:00
Minimum _ 23,7 C 10,2 C 25 % 51 % 1012 hPa - 0,0 km/h (0 Bft) - - 7,4 C 10,2 C
_ Max-Zeit 14:00 13:00 04:00 05:00 20:00 14:00 11:00 - - 13:00 13:00
Maximum _ 24,3 C 21,3 C 33 % 83 % 1015 hPa 0,0 mm 18,7 km/h
S (3 Bft)
- - 11,3 C 21,3 C
Durchschnitt _ 24,1 C 15,3 C 29 % 66 % 1014 hPa #0,0 mm 5,0 km/h (1 Bft) SW - 8,6 C 15,3 C